sensor_id;sensor_type;location;lat;lon;timestamp;P1;durP1;ratioP1;P2;durP2;ratioP2
2257;SDS011;1136;51.574;7.706;2023-03-20T00:00:13;31.47;;;21.47;;
2257;SDS011;1136;51.574;7.706;2023-03-20T00:02:43;37.03;;;24.67;;
2257;SDS011;1136;51.574;7.706;2023-03-20T00:05:16;32.90;;;24.50;;
2257;SDS011;1136;51.574;7.706;2023-03-20T00:07:45;36.33;;;24.20;;
2257;SDS011;1136;51.574;7.706;2023-03-20T00:10:12;35.43;;;23.10;;
2257;SDS011;1136;51.574;7.706;2023-03-20T00:12:39;34.23;;;24.17;;
2257;SDS011;1136;51.574;7.706;2023-03-20T00:15:13;29.03;;;22.33;;
2257;SDS011;1136;51.574;7.706;2023-03-20T00:17:45;34.30;;;25.20;;
2257;SDS011;1136;51.574;7.706;2023-03-20T00:20:15;38.23;;;26.60;;
2257;SDS011;1136;51.574;7.706;2023-03-20T00:22:42;38.57;;;26.53;;
2257;SDS011;1136;51.574;7.706;2023-03-20T00:25:16;37.93;;;26.10;;
2257;SDS011;1136;51.574;7.706;2023-03-20T00:27:44;43.20;;;29.00;;
2257;SDS011;1136;51.574;7.706;2023-03-20T00:30:19;43.97;;;29.70;;
2257;SDS011;1136;51.574;7.706;2023-03-20T00:32:48;42.00;;;31.97;;
2257;SDS011;1136;51.574;7.706;2023-03-20T00:35:19;52.47;;;33.73;;
2257;SDS011;1136;51.574;7.706;2023-03-20T00:37:46;44.23;;;32.47;;
2257;SDS011;1136;51.574;7.706;2023-03-20T00:40:13;52.83;;;31.87;;
2257;SDS011;1136;51.574;7.706;2023-03-20T00:42:40;46.87;;;33.00;;
2257;SDS011;1136;51.574;7.706;2023-03-20T00:45:10;46.10;;;32.63;;
2257;SDS011;1136;51.574;7.706;2023-03-20T00:47:39;47.97;;;30.87;;
2257;SDS011;1136;51.574;7.706;2023-03-20T00:50:18;47.33;;;31.67;;
2257;SDS011;1136;51.574;7.706;2023-03-20T00:52:47;49.47;;;30.80;;
2257;SDS011;1136;51.574;7.706;2023-03-20T00:55:14;46.63;;;31.83;;
2257;SDS011;1136;51.574;7.706;2023-03-20T00:57:54;42.73;;;30.90;;
2257;SDS011;1136;51.574;7.706;2023-03-20T01:00:35;43.10;;;28.47;;
2257;SDS011;1136;51.574;7.706;2023-03-20T01:05:49;45.93;;;30.90;;
2257;SDS011;1136;51.574;7.706;2023-03-20T01:10:49;50.70;;;30.67;;
2257;SDS011;1136;51.574;7.706;2023-03-20T01:13:19;53.80;;;31.60;;
2257;SDS011;1136;51.574;7.706;2023-03-20T01:15:53;49.00;;;32.80;;
2257;SDS011;1136;51.574;7.706;2023-03-20T01:18:21;43.20;;;30.17;;
2257;SDS011;1136;51.574;7.706;2023-03-20T01:20:49;44.80;;;32.33;;
2257;SDS011;1136;51.574;7.706;2023-03-20T01:23:18;47.53;;;34.27;;
2257;SDS011;1136;51.574;7.706;2023-03-20T01:25:46;50.03;;;33.63;;
2257;SDS011;1136;51.574;7.706;2023-03-20T01:30:43;51.27;;;33.73;;
2257;SDS011;1136;51.574;7.706;2023-03-20T01:33:12;50.23;;;31.83;;
2257;SDS011;1136;51.574;7.706;2023-03-20T01:35:40;43.40;;;30.63;;
2257;SDS011;1136;51.574;7.706;2023-03-20T01:38:25;39.47;;;28.13;;
2257;SDS011;1136;51.574;7.706;2023-03-20T01:40:53;46.70;;;30.87;;
2257;SDS011;1136;51.574;7.706;2023-03-20T01:43:24;43.53;;;30.40;;
2257;SDS011;1136;51.574;7.706;2023-03-20T01:45:56;42.57;;;30.07;;
2257;SDS011;1136;51.574;7.706;2023-03-20T01:51:16;37.37;;;27.47;;
2257;SDS011;1136;51.574;7.706;2023-03-20T01:53:43;37.37;;;27.87;;
2257;SDS011;1136;51.574;7.706;2023-03-20T01:56:11;35.27;;;26.10;;
2257;SDS011;1136;51.574;7.706;2023-03-20T01:58:40;39.17;;;28.30;;
2257;SDS011;1136;51.574;7.706;2023-03-20T02:01:10;41.53;;;28.67;;
2257;SDS011;1136;51.574;7.706;2023-03-20T02:03:43;39.33;;;28.13;;
2257;SDS011;1136;51.574;7.706;2023-03-20T02:06:12;36.60;;;27.20;;
2257;SDS011;1136;51.574;7.706;2023-03-20T02:08:49;36.10;;;25.93;;
2257;SDS011;1136;51.574;7.706;2023-03-20T02:11:20;38.60;;;28.17;;
2257;SDS011;1136;51.574;7.706;2023-03-20T02:13:49;38.67;;;27.90;;
2257;SDS011;1136;51.574;7.706;2023-03-20T02:16:17;41.53;;;29.20;;
2257;SDS011;1136;51.574;7.706;2023-03-20T02:18:46;40.20;;;26.10;;
2257;SDS011;1136;51.574;7.706;2023-03-20T02:27:01;31.77;;;23.17;;
2257;SDS011;1136;51.574;7.706;2023-03-20T02:43:10;37.40;;;25.40;;
2257;SDS011;1136;51.574;7.706;2023-03-20T02:48:38;34.67;;;24.37;;
2257;SDS011;1136;51.574;7.706;2023-03-20T02:51:11;33.13;;;23.90;;
2257;SDS011;1136;51.574;7.706;2023-03-20T02:59:10;39.40;;;26.23;;
2257;SDS011;1136;51.574;7.706;2023-03-20T03:01:53;38.10;;;25.57;;
2257;SDS011;1136;51.574;7.706;2023-03-20T03:04:23;33.27;;;23.77;;
2257;SDS011;1136;51.574;7.706;2023-03-20T03:06:52;38.03;;;29.13;;
2257;SDS011;1136;51.574;7.706;2023-03-20T03:09:29;35.73;;;25.83;;
2257;SDS011;1136;51.574;7.706;2023-03-20T03:11:58;36.17;;;25.37;;
2257;SDS011;1136;51.574;7.706;2023-03-20T03:17:08;37.90;;;25.33;;
2257;SDS011;1136;51.574;7.706;2023-03-20T03:19:36;35.80;;;24.97;;
2257;SDS011;1136;51.574;7.706;2023-03-20T03:22:05;33.87;;;25.40;;
2257;SDS011;1136;51.574;7.706;2023-03-20T03:24:33;35.90;;;26.30;;
2257;SDS011;1136;51.574;7.706;2023-03-20T03:27:51;35.70;;;26.77;;
2257;SDS011;1136;51.574;7.706;2023-03-20T03:30:03;30.30;;;22.63;;
2257;SDS011;1136;51.574;7.706;2023-03-20T03:32:33;36.00;;;25.00;;
2257;SDS011;1136;51.574;7.706;2023-03-20T03:35:03;36.97;;;23.03;;
2257;SDS011;1136;51.574;7.706;2023-03-20T03:45:23;23.23;;;17.33;;
2257;SDS011;1136;51.574;7.706;2023-03-20T03:48:07;19.73;;;15.93;;
2257;SDS011;1136;51.574;7.706;2023-03-20T03:50:41;19.50;;;14.20;;
2257;SDS011;1136;51.574;7.706;2023-03-20T03:53:16;17.03;;;12.90;;
2257;SDS011;1136;51.574;7.706;2023-03-20T03:55:46;14.53;;;12.57;;
2257;SDS011;1136;51.574;7.706;2023-03-20T03:58:20;12.50;;;11.20;;
2257;SDS011;1136;51.574;7.706;2023-03-20T04:00:52;17.40;;;12.60;;
2257;SDS011;1136;51.574;7.706;2023-03-20T04:03:20;17.00;;;12.63;;
2257;SDS011;1136;51.574;7.706;2023-03-20T04:05:49;17.20;;;12.87;;
2257;SDS011;1136;51.574;7.706;2023-03-20T04:08:17;18.13;;;12.97;;
2257;SDS011;1136;51.574;7.706;2023-03-20T04:10:44;17.23;;;13.47;;
2257;SDS011;1136;51.574;7.706;2023-03-20T04:13:11;20.00;;;14.77;;
2257;SDS011;1136;51.574;7.706;2023-03-20T04:15:37;24.83;;;15.67;;
2257;SDS011;1136;51.574;7.706;2023-03-20T04:18:04;19.93;;;15.17;;
2257;SDS011;1136;51.574;7.706;2023-03-20T04:20:30;24.17;;;16.53;;
2257;SDS011;1136;51.574;7.706;2023-03-20T04:22:57;20.60;;;16.03;;
2257;SDS011;1136;51.574;7.706;2023-03-20T04:25:24;18.23;;;15.90;;
2257;SDS011;1136;51.574;7.706;2023-03-20T04:27:52;22.50;;;15.37;;
2257;SDS011;1136;51.574;7.706;2023-03-20T04:30:19;18.33;;;14.77;;
2257;SDS011;1136;51.574;7.706;2023-03-20T04:32:46;20.83;;;15.97;;
2257;SDS011;1136;51.574;7.706;2023-03-20T04:35:12;19.47;;;13.83;;
2257;SDS011;1136;51.574;7.706;2023-03-20T04:37:39;17.37;;;13.43;;
2257;SDS011;1136;51.574;7.706;2023-03-20T04:40:06;17.50;;;11.97;;
2257;SDS011;1136;51.574;7.706;2023-03-20T04:42:33;17.23;;;12.53;;
2257;SDS011;1136;51.574;7.706;2023-03-20T04:45:00;13.97;;;10.00;;
2257;SDS011;1136;51.574;7.706;2023-03-20T04:47:26;15.00;;;11.30;;
2257;SDS011;1136;51.574;7.706;2023-03-20T04:49:53;11.30;;;9.43;;
2257;SDS011;1136;51.574;7.706;2023-03-20T04:52:19;14.70;;;10.37;;
2257;SDS011;1136;51.574;7.706;2023-03-20T04:54:46;10.60;;;9.27;;
2257;SDS011;1136;51.574;7.706;2023-03-20T04:57:13;10.30;;;9.20;;
2257;SDS011;1136;51.574;7.706;2023-03-20T04:59:40;11.57;;;8.57;;
2257;SDS011;1136;51.574;7.706;2023-03-20T05:02:06;9.83;;;7.83;;
2257;SDS011;1136;51.574;7.706;2023-03-20T05:04:33;12.23;;;9.90;;
2257;SDS011;1136;51.574;7.706;2023-03-20T05:07:00;12.27;;;8.90;;
2257;SDS011;1136;51.574;7.706;2023-03-20T05:09:27;11.73;;;9.40;;
2257;SDS011;1136;51.574;7.706;2023-03-20T05:11:54;16.90;;;10.93;;
2257;SDS011;1136;51.574;7.706;2023-03-20T05:14:21;10.87;;;9.50;;
2257;SDS011;1136;51.574;7.706;2023-03-20T05:16:47;11.97;;;8.93;;
2257;SDS011;1136;51.574;7.706;2023-03-20T05:19:15;12.80;;;9.70;;
2257;SDS011;1136;51.574;7.706;2023-03-20T05:21:41;12.87;;;9.87;;
2257;SDS011;1136;51.574;7.706;2023-03-20T05:24:08;13.43;;;10.93;;
2257;SDS011;1136;51.574;7.706;2023-03-20T05:26:34;15.07;;;10.03;;
2257;SDS011;1136;51.574;7.706;2023-03-20T05:29:01;15.57;;;9.40;;
2257;SDS011;1136;51.574;7.706;2023-03-20T05:31:29;11.80;;;10.20;;
2257;SDS011;1136;51.574;7.706;2023-03-20T05:33:56;13.80;;;11.00;;
2257;SDS011;1136;51.574;7.706;2023-03-20T05:36:22;16.50;;;10.40;;
2257;SDS011;1136;51.574;7.706;2023-03-20T05:38:51;15.10;;;11.63;;
2257;SDS011;1136;51.574;7.706;2023-03-20T05:41:17;14.07;;;10.27;;
2257;SDS011;1136;51.574;7.706;2023-03-20T05:43:44;19.47;;;11.60;;
2257;SDS011;1136;51.574;7.706;2023-03-20T05:46:12;14.20;;;10.77;;
2257;SDS011;1136;51.574;7.706;2023-03-20T05:48:39;15.57;;;11.80;;
2257;SDS011;1136;51.574;7.706;2023-03-20T05:51:05;19.50;;;12.87;;
2257;SDS011;1136;51.574;7.706;2023-03-20T05:53:32;17.03;;;11.50;;
2257;SDS011;1136;51.574;7.706;2023-03-20T05:55:59;15.77;;;10.63;;
2257;SDS011;1136;51.574;7.706;2023-03-20T05:58:25;16.23;;;11.73;;
2257;SDS011;1136;51.574;7.706;2023-03-20T06:00:52;17.20;;;13.20;;
2257;SDS011;1136;51.574;7.706;2023-03-20T06:03:18;20.83;;;14.03;;
2257;SDS011;1136;51.574;7.706;2023-03-20T06:05:45;16.90;;;12.63;;
2257;SDS011;1136;51.574;7.706;2023-03-20T06:08:12;19.83;;;13.80;;
2257;SDS011;1136;51.574;7.706;2023-03-20T06:10:38;20.13;;;13.10;;
2257;SDS011;1136;51.574;7.706;2023-03-20T06:13:05;19.07;;;14.33;;
2257;SDS011;1136;51.574;7.706;2023-03-20T06:15:32;18.30;;;13.97;;
2257;SDS011;1136;51.574;7.706;2023-03-20T06:17:59;20.67;;;14.57;;
2257;SDS011;1136;51.574;7.706;2023-03-20T06:20:26;19.80;;;13.77;;
2257;SDS011;1136;51.574;7.706;2023-03-20T06:22:52;21.50;;;14.67;;
2257;SDS011;1136;51.574;7.706;2023-03-20T06:25:19;21.20;;;14.40;;
2257;SDS011;1136;51.574;7.706;2023-03-20T06:27:46;19.27;;;13.70;;
2257;SDS011;1136;51.574;7.706;2023-03-20T06:30:13;20.17;;;13.80;;
2257;SDS011;1136;51.574;7.706;2023-03-20T06:32:41;20.00;;;13.40;;
2257;SDS011;1136;51.574;7.706;2023-03-20T06:35:08;22.07;;;14.90;;
2257;SDS011;1136;51.574;7.706;2023-03-20T06:37:36;19.00;;;14.60;;
2257;SDS011;1136;51.574;7.706;2023-03-20T06:40:03;20.50;;;14.83;;
2257;SDS011;1136;51.574;7.706;2023-03-20T06:42:30;23.90;;;14.40;;
2257;SDS011;1136;51.574;7.706;2023-03-20T06:44:57;23.00;;;15.40;;
2257;SDS011;1136;51.574;7.706;2023-03-20T06:47:23;21.80;;;14.60;;
2257;SDS011;1136;51.574;7.706;2023-03-20T06:49:50;19.20;;;14.07;;
2257;SDS011;1136;51.574;7.706;2023-03-20T06:52:18;18.73;;;12.43;;
2257;SDS011;1136;51.574;7.706;2023-03-20T06:54:46;22.47;;;14.43;;
2257;SDS011;1136;51.574;7.706;2023-03-20T06:57:13;23.63;;;14.80;;
2257;SDS011;1136;51.574;7.706;2023-03-20T06:59:40;18.67;;;13.37;;
2257;SDS011;1136;51.574;7.706;2023-03-20T07:02:08;18.87;;;13.33;;
2257;SDS011;1136;51.574;7.706;2023-03-20T07:04:35;22.07;;;15.53;;
2257;SDS011;1136;51.574;7.706;2023-03-20T07:07:02;22.20;;;14.97;;
2257;SDS011;1136;51.574;7.706;2023-03-20T07:09:29;21.57;;;15.63;;
2257;SDS011;1136;51.574;7.706;2023-03-20T07:11:57;26.60;;;14.43;;
2257;SDS011;1136;51.574;7.706;2023-03-20T07:14:24;23.70;;;15.10;;
2257;SDS011;1136;51.574;7.706;2023-03-20T07:16:53;22.07;;;15.60;;
2257;SDS011;1136;51.574;7.706;2023-03-20T07:19:21;23.40;;;16.20;;
2257;SDS011;1136;51.574;7.706;2023-03-20T07:21:49;18.80;;;13.90;;
2257;SDS011;1136;51.574;7.706;2023-03-20T07:24:16;20.83;;;14.47;;
2257;SDS011;1136;51.574;7.706;2023-03-20T07:26:43;23.70;;;13.90;;
2257;SDS011;1136;51.574;7.706;2023-03-20T07:29:11;20.33;;;13.47;;
2257;SDS011;1136;51.574;7.706;2023-03-20T07:31:37;20.53;;;14.13;;
2257;SDS011;1136;51.574;7.706;2023-03-20T07:34:04;19.87;;;13.23;;
2257;SDS011;1136;51.574;7.706;2023-03-20T07:36:30;18.57;;;12.43;;
2257;SDS011;1136;51.574;7.706;2023-03-20T07:38:57;15.60;;;11.67;;
2257;SDS011;1136;51.574;7.706;2023-03-20T07:41:24;19.40;;;12.43;;
2257;SDS011;1136;51.574;7.706;2023-03-20T07:43:50;19.30;;;12.20;;
2257;SDS011;1136;51.574;7.706;2023-03-20T07:46:18;15.80;;;12.03;;
2257;SDS011;1136;51.574;7.706;2023-03-20T07:48:44;16.23;;;11.27;;
2257;SDS011;1136;51.574;7.706;2023-03-20T07:51:14;17.13;;;12.77;;
2257;SDS011;1136;51.574;7.706;2023-03-20T07:53:40;14.43;;;11.33;;
2257;SDS011;1136;51.574;7.706;2023-03-20T07:56:07;16.33;;;11.33;;
2257;SDS011;1136;51.574;7.706;2023-03-20T07:58:35;13.63;;;11.17;;
2257;SDS011;1136;51.574;7.706;2023-03-20T08:01:02;16.73;;;11.00;;
2257;SDS011;1136;51.574;7.706;2023-03-20T08:03:29;22.30;;;11.87;;
2257;SDS011;1136;51.574;7.706;2023-03-20T08:05:55;12.37;;;9.63;;
2257;SDS011;1136;51.574;7.706;2023-03-20T08:08:22;12.67;;;10.93;;
2257;SDS011;1136;51.574;7.706;2023-03-20T08:10:49;11.47;;;8.53;;
2257;SDS011;1136;51.574;7.706;2023-03-20T08:13:16;10.27;;;8.87;;
2257;SDS011;1136;51.574;7.706;2023-03-20T08:15:42;11.90;;;8.70;;
2257;SDS011;1136;51.574;7.706;2023-03-20T08:18:09;15.60;;;9.00;;
2257;SDS011;1136;51.574;7.706;2023-03-20T08:20:35;10.57;;;8.23;;
2257;SDS011;1136;51.574;7.706;2023-03-20T08:23:02;12.77;;;8.90;;
2257;SDS011;1136;51.574;7.706;2023-03-20T08:25:28;10.40;;;9.00;;
2257;SDS011;1136;51.574;7.706;2023-03-20T08:27:59;12.03;;;8.77;;
2257;SDS011;1136;51.574;7.706;2023-03-20T08:30:26;11.20;;;8.83;;
2257;SDS011;1136;51.574;7.706;2023-03-20T08:32:54;14.17;;;9.03;;
2257;SDS011;1136;51.574;7.706;2023-03-20T08:35:21;12.83;;;8.43;;
2257;SDS011;1136;51.574;7.706;2023-03-20T08:37:58;13.33;;;9.50;;
2257;SDS011;1136;51.574;7.706;2023-03-20T08:40:25;9.53;;;7.13;;
2257;SDS011;1136;51.574;7.706;2023-03-20T08:42:51;12.00;;;8.07;;
2257;SDS011;1136;51.574;7.706;2023-03-20T08:45:18;11.60;;;9.03;;
2257;SDS011;1136;51.574;7.706;2023-03-20T08:47:46;11.90;;;8.27;;
2257;SDS011;1136;51.574;7.706;2023-03-20T08:50:15;13.97;;;8.30;;
2257;SDS011;1136;51.574;7.706;2023-03-20T08:52:41;12.37;;;7.60;;
2257;SDS011;1136;51.574;7.706;2023-03-20T08:55:10;12.43;;;8.40;;
2257;SDS011;1136;51.574;7.706;2023-03-20T08:57:37;10.10;;;7.87;;
2257;SDS011;1136;51.574;7.706;2023-03-20T09:00:04;8.70;;;7.53;;
2257;SDS011;1136;51.574;7.706;2023-03-20T09:02:32;13.03;;;7.70;;
2257;SDS011;1136;51.574;7.706;2023-03-20T09:04:59;10.80;;;6.37;;
2257;SDS011;1136;51.574;7.706;2023-03-20T09:07:26;9.50;;;6.83;;
2257;SDS011;1136;51.574;7.706;2023-03-20T09:09:53;10.70;;;7.40;;
2257;SDS011;1136;51.574;7.706;2023-03-20T09:12:20;9.77;;;7.40;;
2257;SDS011;1136;51.574;7.706;2023-03-20T09:14:46;11.13;;;6.57;;
2257;SDS011;1136;51.574;7.706;2023-03-20T09:17:13;10.27;;;7.40;;
2257;SDS011;1136;51.574;7.706;2023-03-20T09:19:40;8.20;;;6.90;;
2257;SDS011;1136;51.574;7.706;2023-03-20T09:22:13;11.13;;;7.80;;
2257;SDS011;1136;51.574;7.706;2023-03-20T09:24:40;10.73;;;8.23;;
2257;SDS011;1136;51.574;7.706;2023-03-20T09:27:07;11.73;;;8.57;;
2257;SDS011;1136;51.574;7.706;2023-03-20T09:29:34;12.53;;;8.33;;
2257;SDS011;1136;51.574;7.706;2023-03-20T09:32:01;12.03;;;8.27;;
2257;SDS011;1136;51.574;7.706;2023-03-20T09:34:27;10.47;;;8.97;;
2257;SDS011;1136;51.574;7.706;2023-03-20T09:36:54;12.40;;;8.17;;
2257;SDS011;1136;51.574;7.706;2023-03-20T09:39:22;11.20;;;8.23;;
2257;SDS011;1136;51.574;7.706;2023-03-20T09:41:49;11.00;;;8.33;;
2257;SDS011;1136;51.574;7.706;2023-03-20T09:55:31;14.80;;;8.80;;
2257;SDS011;1136;51.574;7.706;2023-03-20T09:58:04;12.13;;;8.37;;
2257;SDS011;1136;51.574;7.706;2023-03-20T10:00:37;16.63;;;9.07;;
2257;SDS011;1136;51.574;7.706;2023-03-20T10:03:20;12.03;;;8.83;;
2257;SDS011;1136;51.574;7.706;2023-03-20T10:08:25;15.30;;;7.90;;
2257;SDS011;1136;51.574;7.706;2023-03-20T10:10:57;14.80;;;9.17;;
2257;SDS011;1136;51.574;7.706;2023-03-20T10:18:50;10.90;;;8.60;;
2257;SDS011;1136;51.574;7.706;2023-03-20T10:21:26;11.03;;;7.27;;
2257;SDS011;1136;51.574;7.706;2023-03-20T10:24:04;9.40;;;7.60;;
2257;SDS011;1136;51.574;7.706;2023-03-20T10:26:33;13.87;;;7.33;;
2257;SDS011;1136;51.574;7.706;2023-03-20T10:29:01;12.83;;;6.93;;
2257;SDS011;1136;51.574;7.706;2023-03-20T10:34:42;8.27;;;5.80;;
2257;SDS011;1136;51.574;7.706;2023-03-20T10:40:26;8.90;;;5.83;;
2257;SDS011;1136;51.574;7.706;2023-03-20T10:42:56;13.27;;;5.70;;
2257;SDS011;1136;51.574;7.706;2023-03-20T10:48:13;10.33;;;5.97;;
2257;SDS011;1136;51.574;7.706;2023-03-20T10:50:44;9.03;;;5.77;;
2257;SDS011;1136;51.574;7.706;2023-03-20T10:53:24;9.87;;;6.10;;
2257;SDS011;1136;51.574;7.706;2023-03-20T10:55:55;11.10;;;5.10;;
2257;SDS011;1136;51.574;7.706;2023-03-20T10:58:29;8.40;;;5.07;;
2257;SDS011;1136;51.574;7.706;2023-03-20T11:00:57;14.10;;;4.70;;
2257;SDS011;1136;51.574;7.706;2023-03-20T11:03:25;7.80;;;5.40;;
2257;SDS011;1136;51.574;7.706;2023-03-20T11:06:09;9.13;;;4.77;;
2257;SDS011;1136;51.574;7.706;2023-03-20T11:08:40;6.53;;;4.20;;
2257;SDS011;1136;51.574;7.706;2023-03-20T11:11:08;5.57;;;3.90;;
2257;SDS011;1136;51.574;7.706;2023-03-20T11:13:38;7.07;;;4.87;;
2257;SDS011;1136;51.574;7.706;2023-03-20T11:16:20;4.80;;;4.20;;
2257;SDS011;1136;51.574;7.706;2023-03-20T11:18:49;10.80;;;5.10;;
2257;SDS011;1136;51.574;7.706;2023-03-20T11:21:19;7.00;;;5.13;;
2257;SDS011;1136;51.574;7.706;2023-03-20T11:23:53;8.53;;;4.93;;
2257;SDS011;1136;51.574;7.706;2023-03-20T11:26:30;6.67;;;4.53;;
2257;SDS011;1136;51.574;7.706;2023-03-20T11:29:00;7.63;;;4.63;;
2257;SDS011;1136;51.574;7.706;2023-03-20T11:31:37;7.00;;;4.40;;
2257;SDS011;1136;51.574;7.706;2023-03-20T11:36:32;10.43;;;5.20;;
2257;SDS011;1136;51.574;7.706;2023-03-20T11:41:45;12.27;;;5.00;;
2257;SDS011;1136;51.574;7.706;2023-03-20T11:44:24;7.00;;;4.67;;
2257;SDS011;1136;51.574;7.706;2023-03-20T11:49:33;8.00;;;4.20;;
2257;SDS011;1136;51.574;7.706;2023-03-20T11:52:13;7.10;;;4.57;;
2257;SDS011;1136;51.574;7.706;2023-03-20T11:54:46;8.20;;;3.80;;
2257;SDS011;1136;51.574;7.706;2023-03-20T11:59:59;13.73;;;5.20;;
2257;SDS011;1136;51.574;7.706;2023-03-20T12:02:30;10.60;;;4.07;;
2257;SDS011;1136;51.574;7.706;2023-03-20T12:04:58;10.00;;;4.40;;
2257;SDS011;1136;51.574;7.706;2023-03-20T12:07:29;5.40;;;3.73;;
2257;SDS011;1136;51.574;7.706;2023-03-20T12:10:05;7.30;;;3.70;;
2257;SDS011;1136;51.574;7.706;2023-03-20T12:12:43;5.73;;;4.07;;
2257;SDS011;1136;51.574;7.706;2023-03-20T12:15:21;3.83;;;3.47;;
2257;SDS011;1136;51.574;7.706;2023-03-20T12:17:54;5.53;;;3.37;;
2257;SDS011;1136;51.574;7.706;2023-03-20T12:23:34;8.93;;;3.00;;
2257;SDS011;1136;51.574;7.706;2023-03-20T12:31:43;7.30;;;3.37;;
2257;SDS011;1136;51.574;7.706;2023-03-20T12:34:21;6.47;;;3.70;;
2257;SDS011;1136;51.574;7.706;2023-03-20T12:36:50;3.83;;;3.10;;
2257;SDS011;1136;51.574;7.706;2023-03-20T12:39:23;7.17;;;3.83;;
2257;SDS011;1136;51.574;7.706;2023-03-20T12:45:15;4.40;;;3.37;;
2257;SDS011;1136;51.574;7.706;2023-03-20T13:07:50;6.77;;;3.37;;
2257;SDS011;1136;51.574;7.706;2023-03-20T13:10:35;6.30;;;3.80;;
2257;SDS011;1136;51.574;7.706;2023-03-20T13:15:53;11.70;;;3.73;;
2257;SDS011;1136;51.574;7.706;2023-03-20T13:21:30;3.90;;;3.50;;
2257;SDS011;1136;51.574;7.706;2023-03-20T13:37:27;7.40;;;4.03;;
2257;SDS011;1136;51.574;7.706;2023-03-20T13:42:48;4.93;;;3.43;;
2257;SDS011;1136;51.574;7.706;2023-03-20T13:45:34;6.73;;;4.27;;
2257;SDS011;1136;51.574;7.706;2023-03-20T13:48:06;13.13;;;4.00;;
2257;SDS011;1136;51.574;7.706;2023-03-20T13:56:39;8.37;;;4.50;;
2257;SDS011;1136;51.574;7.706;2023-03-20T14:02:18;8.50;;;4.87;;
2257;SDS011;1136;51.574;7.706;2023-03-20T14:05:03;5.80;;;5.20;;
2257;SDS011;1136;51.574;7.706;2023-03-20T14:07:36;8.37;;;5.40;;
2257;SDS011;1136;51.574;7.706;2023-03-20T14:15:19;9.00;;;4.30;;
2257;SDS011;1136;51.574;7.706;2023-03-20T14:17:47;8.03;;;4.03;;
2257;SDS011;1136;51.574;7.706;2023-03-20T14:20:22;4.90;;;3.90;;
2257;SDS011;1136;51.574;7.706;2023-03-20T14:23:01;4.27;;;3.90;;
2257;SDS011;1136;51.574;7.706;2023-03-20T14:25:28;4.80;;;4.30;;
2257;SDS011;1136;51.574;7.706;2023-03-20T14:30:43;8.63;;;4.80;;
2257;SDS011;1136;51.574;7.706;2023-03-20T14:35:49;9.17;;;4.20;;
2257;SDS011;1136;51.574;7.706;2023-03-20T14:48:54;6.87;;;4.90;;
2257;SDS011;1136;51.574;7.706;2023-03-20T14:51:40;4.83;;;4.47;;
2257;SDS011;1136;51.574;7.706;2023-03-20T14:54:29;9.53;;;5.63;;
2257;SDS011;1136;51.574;7.706;2023-03-20T14:57:07;13.20;;;6.27;;
2257;SDS011;1136;51.574;7.706;2023-03-20T14:59:35;6.33;;;5.70;;
2257;SDS011;1136;51.574;7.706;2023-03-20T15:02:02;6.60;;;6.10;;
2257;SDS011;1136;51.574;7.706;2023-03-20T15:09:48;8.17;;;7.20;;
2257;SDS011;1136;51.574;7.706;2023-03-20T15:12:18;8.67;;;7.63;;
2257;SDS011;1136;51.574;7.706;2023-03-20T15:14:49;9.37;;;8.50;;
2257;SDS011;1136;51.574;7.706;2023-03-20T15:17:22;8.87;;;7.53;;
2257;SDS011;1136;51.574;7.706;2023-03-20T15:20:00;8.13;;;7.40;;
2257;SDS011;1136;51.574;7.706;2023-03-20T15:22:52;10.77;;;7.87;;
2257;SDS011;1136;51.574;7.706;2023-03-20T15:25:45;8.53;;;7.50;;
2257;SDS011;1136;51.574;7.706;2023-03-20T15:28:11;12.30;;;7.83;;
2257;SDS011;1136;51.574;7.706;2023-03-20T15:30:42;13.20;;;9.67;;
2257;SDS011;1136;51.574;7.706;2023-03-20T15:33:19;10.73;;;8.80;;
2257;SDS011;1136;51.574;7.706;2023-03-20T15:35:53;8.43;;;7.63;;
2257;SDS011;1136;51.574;7.706;2023-03-20T15:38:20;11.93;;;7.80;;
2257;SDS011;1136;51.574;7.706;2023-03-20T15:40:46;7.70;;;7.07;;
2257;SDS011;1136;51.574;7.706;2023-03-20T15:43:21;8.87;;;6.13;;
2257;SDS011;1136;51.574;7.706;2023-03-20T15:45:50;7.20;;;6.10;;
2257;SDS011;1136;51.574;7.706;2023-03-20T15:48:35;6.90;;;6.20;;
2257;SDS011;1136;51.574;7.706;2023-03-20T15:51:02;10.20;;;5.57;;
2257;SDS011;1136;51.574;7.706;2023-03-20T15:53:33;9.73;;;6.60;;
2257;SDS011;1136;51.574;7.706;2023-03-20T15:56:10;7.50;;;4.80;;
2257;SDS011;1136;51.574;7.706;2023-03-20T15:58:44;6.97;;;5.70;;
2257;SDS011;1136;51.574;7.706;2023-03-20T16:01:17;10.33;;;6.20;;
2257;SDS011;1136;51.574;7.706;2023-03-20T16:03:45;7.50;;;6.53;;
2257;SDS011;1136;51.574;7.706;2023-03-20T16:06:11;7.40;;;6.70;;
2257;SDS011;1136;51.574;7.706;2023-03-20T16:08:41;8.67;;;6.60;;
2257;SDS011;1136;51.574;7.706;2023-03-20T16:11:14;12.83;;;8.63;;
2257;SDS011;1136;51.574;7.706;2023-03-20T16:13:45;11.63;;;7.90;;
2257;SDS011;1136;51.574;7.706;2023-03-20T16:16:14;14.73;;;9.60;;
2257;SDS011;1136;51.574;7.706;2023-03-20T16:18:43;10.50;;;7.70;;
2257;SDS011;1136;51.574;7.706;2023-03-20T16:21:20;9.40;;;8.33;;
2257;SDS011;1136;51.574;7.706;2023-03-20T16:23:50;6.23;;;5.73;;
2257;SDS011;1136;51.574;7.706;2023-03-20T16:26:18;9.63;;;6.30;;
2257;SDS011;1136;51.574;7.706;2023-03-20T16:29:08;9.73;;;7.43;;
2257;SDS011;1136;51.574;7.706;2023-03-20T16:31:35;7.10;;;6.37;;
2257;SDS011;1136;51.574;7.706;2023-03-20T16:34:04;11.83;;;6.60;;
2257;SDS011;1136;51.574;7.706;2023-03-20T16:36:33;7.53;;;5.83;;
2257;SDS011;1136;51.574;7.706;2023-03-20T16:41:36;8.47;;;5.80;;
2257;SDS011;1136;51.574;7.706;2023-03-20T16:44:11;6.67;;;5.87;;
2257;SDS011;1136;51.574;7.706;2023-03-20T16:46:53;7.33;;;6.60;;
2257;SDS011;1136;51.574;7.706;2023-03-20T16:51:58;8.83;;;6.00;;
2257;SDS011;1136;51.574;7.706;2023-03-20T16:54:31;10.37;;;6.37;;
2257;SDS011;1136;51.574;7.706;2023-03-20T16:56:59;11.60;;;5.80;;
2257;SDS011;1136;51.574;7.706;2023-03-20T16:59:29;9.50;;;6.77;;
2257;SDS011;1136;51.574;7.706;2023-03-20T17:01:58;9.03;;;6.80;;
2257;SDS011;1136;51.574;7.706;2023-03-20T17:06:57;7.97;;;7.07;;
2257;SDS011;1136;51.574;7.706;2023-03-20T17:09:26;10.50;;;7.93;;
2257;SDS011;1136;51.574;7.706;2023-03-20T17:14:30;7.70;;;6.90;;
2257;SDS011;1136;51.574;7.706;2023-03-20T17:16:57;11.10;;;6.83;;
2257;SDS011;1136;51.574;7.706;2023-03-20T17:19:25;11.13;;;8.20;;
2257;SDS011;1136;51.574;7.706;2023-03-20T17:21:52;16.20;;;8.80;;
2257;SDS011;1136;51.574;7.706;2023-03-20T17:24:18;10.57;;;8.77;;
2257;SDS011;1136;51.574;7.706;2023-03-20T17:26:48;8.63;;;7.73;;
2257;SDS011;1136;51.574;7.706;2023-03-20T17:29:18;13.43;;;9.10;;
2257;SDS011;1136;51.574;7.706;2023-03-20T17:31:45;8.87;;;7.83;;
2257;SDS011;1136;51.574;7.706;2023-03-20T17:34:12;10.63;;;8.60;;
2257;SDS011;1136;51.574;7.706;2023-03-20T17:36:40;10.13;;;8.73;;
2257;SDS011;1136;51.574;7.706;2023-03-20T17:39:19;12.87;;;10.03;;
2257;SDS011;1136;51.574;7.706;2023-03-20T17:41:46;13.17;;;8.50;;
2257;SDS011;1136;51.574;7.706;2023-03-20T17:44:13;14.33;;;9.03;;
2257;SDS011;1136;51.574;7.706;2023-03-20T17:46:40;13.50;;;9.03;;
2257;SDS011;1136;51.574;7.706;2023-03-20T17:49:22;16.03;;;9.43;;
2257;SDS011;1136;51.574;7.706;2023-03-20T17:51:52;19.50;;;9.97;;
2257;SDS011;1136;51.574;7.706;2023-03-20T17:54:19;9.30;;;8.30;;
2257;SDS011;1136;51.574;7.706;2023-03-20T17:56:46;12.30;;;8.93;;
2257;SDS011;1136;51.574;7.706;2023-03-20T17:59:13;10.80;;;8.70;;
2257;SDS011;1136;51.574;7.706;2023-03-20T18:01:40;13.80;;;8.93;;
2257;SDS011;1136;51.574;7.706;2023-03-20T18:04:07;13.97;;;8.50;;
2257;SDS011;1136;51.574;7.706;2023-03-20T18:06:34;10.90;;;8.20;;
2257;SDS011;1136;51.574;7.706;2023-03-20T18:09:02;10.70;;;8.23;;
2257;SDS011;1136;51.574;7.706;2023-03-20T18:11:29;13.93;;;9.33;;
2257;SDS011;1136;51.574;7.706;2023-03-20T18:13:56;12.17;;;7.97;;
2257;SDS011;1136;51.574;7.706;2023-03-20T18:16:24;12.40;;;7.33;;
2257;SDS011;1136;51.574;7.706;2023-03-20T18:18:51;11.27;;;7.53;;
2257;SDS011;1136;51.574;7.706;2023-03-20T18:21:18;10.80;;;7.03;;